sensor_id;sensor_type;location;lat;lon;timestamp;P1;durP1;ratioP1;P2;durP2;ratioP2
2023;SDS011;1016;48.770;9.154;2023-02-01T00:02:20;17.87;;;3.70;;
2023;SDS011;1016;48.770;9.154;2023-02-01T00:04:45;16.83;;;2.80;;
2023;SDS011;1016;48.770;9.154;2023-02-01T00:07:10;18.17;;;3.57;;
2023;SDS011;1016;48.770;9.154;2023-02-01T00:09:36;16.43;;;2.83;;
2023;SDS011;1016;48.770;9.154;2023-02-01T00:12:02;18.13;;;3.77;;
2023;SDS011;1016;48.770;9.154;2023-02-01T00:14:28;18.37;;;3.53;;
2023;SDS011;1016;48.770;9.154;2023-02-01T00:16:54;17.57;;;3.23;;
2023;SDS011;1016;48.770;9.154;2023-02-01T00:19:20;17.20;;;3.17;;
2023;SDS011;1016;48.770;9.154;2023-02-01T00:21:45;16.70;;;3.03;;
2023;SDS011;1016;48.770;9.154;2023-02-01T00:24:10;17.33;;;3.13;;
2023;SDS011;1016;48.770;9.154;2023-02-01T00:26:41;16.90;;;2.93;;
2023;SDS011;1016;48.770;9.154;2023-02-01T00:29:12;17.20;;;3.30;;
2023;SDS011;1016;48.770;9.154;2023-02-01T00:31:40;16.33;;;3.00;;
2023;SDS011;1016;48.770;9.154;2023-02-01T00:34:06;16.50;;;2.90;;
2023;SDS011;1016;48.770;9.154;2023-02-01T00:36:33;17.00;;;3.20;;
2023;SDS011;1016;48.770;9.154;2023-02-01T00:38:59;17.00;;;3.00;;
2023;SDS011;1016;48.770;9.154;2023-02-01T00:41:24;16.83;;;2.93;;
2023;SDS011;1016;48.770;9.154;2023-02-01T00:43:50;16.97;;;3.17;;
2023;SDS011;1016;48.770;9.154;2023-02-01T00:46:16;18.10;;;3.00;;
2023;SDS011;1016;48.770;9.154;2023-02-01T00:48:43;16.70;;;2.67;;
2023;SDS011;1016;48.770;9.154;2023-02-01T00:51:10;17.50;;;3.17;;
2023;SDS011;1016;48.770;9.154;2023-02-01T00:53:37;16.30;;;2.67;;
2023;SDS011;1016;48.770;9.154;2023-02-01T00:56:03;17.20;;;3.23;;
2023;SDS011;1016;48.770;9.154;2023-02-01T00:58:30;16.67;;;2.67;;
2023;SDS011;1016;48.770;9.154;2023-02-01T01:01:06;17.50;;;2.80;;
2023;SDS011;1016;48.770;9.154;2023-02-01T01:03:38;16.10;;;2.60;;
2023;SDS011;1016;48.770;9.154;2023-02-01T01:06:06;16.60;;;2.33;;
2023;SDS011;1016;48.770;9.154;2023-02-01T01:08:36;16.37;;;2.50;;
2023;SDS011;1016;48.770;9.154;2023-02-01T01:11:06;16.40;;;2.63;;
2023;SDS011;1016;48.770;9.154;2023-02-01T01:13:36;16.80;;;2.73;;
2023;SDS011;1016;48.770;9.154;2023-02-01T01:16:02;17.40;;;2.73;;
2023;SDS011;1016;48.770;9.154;2023-02-01T01:18:30;15.93;;;2.43;;
2023;SDS011;1016;48.770;9.154;2023-02-01T01:20:56;15.97;;;2.33;;
2023;SDS011;1016;48.770;9.154;2023-02-01T01:23:22;16.20;;;2.60;;
2023;SDS011;1016;48.770;9.154;2023-02-01T01:25:48;18.00;;;2.57;;
2023;SDS011;1016;48.770;9.154;2023-02-01T01:28:14;15.93;;;2.37;;
2023;SDS011;1016;48.770;9.154;2023-02-01T01:30:39;17.40;;;2.33;;
2023;SDS011;1016;48.770;9.154;2023-02-01T01:33:05;15.90;;;2.23;;
2023;SDS011;1016;48.770;9.154;2023-02-01T01:35:31;17.00;;;2.27;;
2023;SDS011;1016;48.770;9.154;2023-02-01T01:37:58;16.43;;;2.27;;
2023;SDS011;1016;48.770;9.154;2023-02-01T01:40:25;16.23;;;2.20;;
2023;SDS011;1016;48.770;9.154;2023-02-01T01:42:51;16.13;;;2.30;;
2023;SDS011;1016;48.770;9.154;2023-02-01T01:45:21;16.60;;;2.73;;
2023;SDS011;1016;48.770;9.154;2023-02-01T01:47:52;16.03;;;2.00;;
2023;SDS011;1016;48.770;9.154;2023-02-01T01:50:33;15.60;;;1.97;;
2023;SDS011;1016;48.770;9.154;2023-02-01T01:53:02;15.83;;;2.13;;
2023;SDS011;1016;48.770;9.154;2023-02-01T01:55:31;15.90;;;2.00;;
2023;SDS011;1016;48.770;9.154;2023-02-01T01:58:02;16.70;;;2.00;;
2023;SDS011;1016;48.770;9.154;2023-02-01T02:00:35;15.57;;;2.00;;
2023;SDS011;1016;48.770;9.154;2023-02-01T02:03:07;15.77;;;1.93;;
2023;SDS011;1016;48.770;9.154;2023-02-01T02:05:40;16.17;;;2.13;;
2023;SDS011;1016;48.770;9.154;2023-02-01T02:08:06;15.77;;;1.83;;
2023;SDS011;1016;48.770;9.154;2023-02-01T02:10:31;16.63;;;2.50;;
2023;SDS011;1016;48.770;9.154;2023-02-01T02:13:16;15.70;;;1.80;;
2023;SDS011;1016;48.770;9.154;2023-02-01T02:15:52;15.87;;;2.10;;
2023;SDS011;1016;48.770;9.154;2023-02-01T02:18:27;16.10;;;2.10;;
2023;SDS011;1016;48.770;9.154;2023-02-01T02:21:17;15.80;;;1.93;;
2023;SDS011;1016;48.770;9.154;2023-02-01T02:27:18;15.97;;;2.30;;
2023;SDS011;1016;48.770;9.154;2023-02-01T02:30:34;16.37;;;2.40;;
2023;SDS011;1016;48.770;9.154;2023-02-01T02:41:05;16.43;;;2.50;;
2023;SDS011;1016;48.770;9.154;2023-02-01T02:44:04;16.17;;;2.10;;
2023;SDS011;1016;48.770;9.154;2023-02-01T02:46:57;16.20;;;2.33;;
2023;SDS011;1016;48.770;9.154;2023-02-01T02:52:48;16.93;;;2.70;;
2023;SDS011;1016;48.770;9.154;2023-02-01T02:55:39;16.60;;;2.30;;
2023;SDS011;1016;48.770;9.154;2023-02-01T02:58:06;15.80;;;2.40;;
2023;SDS011;1016;48.770;9.154;2023-02-01T03:00:51;15.87;;;2.17;;
2023;SDS011;1016;48.770;9.154;2023-02-01T03:03:38;15.93;;;2.20;;
2023;SDS011;1016;48.770;9.154;2023-02-01T03:06:23;16.10;;;2.40;;
2023;SDS011;1016;48.770;9.154;2023-02-01T03:08:49;16.87;;;2.67;;
2023;SDS011;1016;48.770;9.154;2023-02-01T03:11:19;16.30;;;2.63;;
2023;SDS011;1016;48.770;9.154;2023-02-01T03:14:06;17.00;;;3.03;;
2023;SDS011;1016;48.770;9.154;2023-02-01T03:16:42;16.57;;;2.57;;
2023;SDS011;1016;48.770;9.154;2023-02-01T03:19:17;16.53;;;2.50;;
2023;SDS011;1016;48.770;9.154;2023-02-01T03:21:53;16.43;;;2.80;;
2023;SDS011;1016;48.770;9.154;2023-02-01T03:33:09;16.27;;;2.53;;
2023;SDS011;1016;48.770;9.154;2023-02-01T03:38:51;16.10;;;2.30;;
2023;SDS011;1016;48.770;9.154;2023-02-01T03:41:34;18.03;;;2.63;;
2023;SDS011;1016;48.770;9.154;2023-02-01T03:46:42;15.87;;;2.40;;
2023;SDS011;1016;48.770;9.154;2023-02-01T03:49:15;16.13;;;2.43;;
2023;SDS011;1016;48.770;9.154;2023-02-01T03:51:45;16.63;;;2.93;;
2023;SDS011;1016;48.770;9.154;2023-02-01T03:54:13;18.80;;;3.00;;
2023;SDS011;1016;48.770;9.154;2023-02-01T03:56:41;16.20;;;2.90;;
2023;SDS011;1016;48.770;9.154;2023-02-01T03:59:09;16.80;;;2.93;;
2023;SDS011;1016;48.770;9.154;2023-02-01T04:01:35;16.40;;;2.90;;
2023;SDS011;1016;48.770;9.154;2023-02-01T04:04:01;17.00;;;2.80;;
2023;SDS011;1016;48.770;9.154;2023-02-01T04:06:26;16.13;;;2.70;;
2023;SDS011;1016;48.770;9.154;2023-02-01T04:08:52;17.50;;;3.30;;
2023;SDS011;1016;48.770;9.154;2023-02-01T04:11:17;16.40;;;2.70;;
2023;SDS011;1016;48.770;9.154;2023-02-01T04:13:43;17.70;;;2.80;;
2023;SDS011;1016;48.770;9.154;2023-02-01T04:16:09;15.70;;;2.33;;
2023;SDS011;1016;48.770;9.154;2023-02-01T04:18:34;16.87;;;2.93;;
2023;SDS011;1016;48.770;9.154;2023-02-01T04:21:00;16.80;;;2.60;;
2023;SDS011;1016;48.770;9.154;2023-02-01T04:23:27;16.00;;;2.50;;
2023;SDS011;1016;48.770;9.154;2023-02-01T04:25:53;16.50;;;2.53;;
2023;SDS011;1016;48.770;9.154;2023-02-01T04:28:19;16.67;;;2.50;;
2023;SDS011;1016;48.770;9.154;2023-02-01T04:30:45;17.30;;;2.63;;
2023;SDS011;1016;48.770;9.154;2023-02-01T04:33:11;17.00;;;2.63;;
2023;SDS011;1016;48.770;9.154;2023-02-01T04:35:38;15.97;;;2.33;;
2023;SDS011;1016;48.770;9.154;2023-02-01T04:38:04;16.67;;;2.80;;
2023;SDS011;1016;48.770;9.154;2023-02-01T04:40:30;16.10;;;2.50;;
2023;SDS011;1016;48.770;9.154;2023-02-01T04:42:56;16.13;;;2.50;;
2023;SDS011;1016;48.770;9.154;2023-02-01T04:45:21;16.67;;;2.57;;
2023;SDS011;1016;48.770;9.154;2023-02-01T04:47:46;16.23;;;2.17;;
2023;SDS011;1016;48.770;9.154;2023-02-01T04:50:13;16.93;;;3.20;;
2023;SDS011;1016;48.770;9.154;2023-02-01T04:52:39;15.70;;;2.20;;
2023;SDS011;1016;48.770;9.154;2023-02-01T04:55:06;16.00;;;2.67;;
2023;SDS011;1016;48.770;9.154;2023-02-01T04:57:32;16.10;;;2.07;;
2023;SDS011;1016;48.770;9.154;2023-02-01T04:59:57;16.90;;;2.27;;
2023;SDS011;1016;48.770;9.154;2023-02-01T05:02:23;18.47;;;2.43;;
2023;SDS011;1016;48.770;9.154;2023-02-01T05:04:48;16.10;;;2.20;;
2023;SDS011;1016;48.770;9.154;2023-02-01T05:07:15;17.00;;;2.70;;
2023;SDS011;1016;48.770;9.154;2023-02-01T05:09:40;15.77;;;2.30;;
2023;SDS011;1016;48.770;9.154;2023-02-01T05:12:06;15.90;;;2.00;;
2023;SDS011;1016;48.770;9.154;2023-02-01T05:14:51;16.33;;;2.30;;
2023;SDS011;1016;48.770;9.154;2023-02-01T05:17:16;16.53;;;2.30;;
2023;SDS011;1016;48.770;9.154;2023-02-01T05:19:42;15.40;;;2.07;;
2023;SDS011;1016;48.770;9.154;2023-02-01T05:22:07;15.87;;;2.20;;
2023;SDS011;1016;48.770;9.154;2023-02-01T05:24:33;16.10;;;2.40;;
2023;SDS011;1016;48.770;9.154;2023-02-01T05:26:58;17.10;;;2.40;;
2023;SDS011;1016;48.770;9.154;2023-02-01T05:29:24;16.00;;;2.17;;
2023;SDS011;1016;48.770;9.154;2023-02-01T05:31:49;17.10;;;2.43;;
2023;SDS011;1016;48.770;9.154;2023-02-01T05:34:15;15.93;;;2.10;;
2023;SDS011;1016;48.770;9.154;2023-02-01T05:36:41;16.60;;;2.50;;
2023;SDS011;1016;48.770;9.154;2023-02-01T05:39:06;16.70;;;2.20;;
2023;SDS011;1016;48.770;9.154;2023-02-01T05:41:32;16.37;;;2.60;;
2023;SDS011;1016;48.770;9.154;2023-02-01T05:43:57;15.60;;;2.13;;
2023;SDS011;1016;48.770;9.154;2023-02-01T05:46:23;15.70;;;2.10;;
2023;SDS011;1016;48.770;9.154;2023-02-01T05:48:49;15.97;;;2.37;;
2023;SDS011;1016;48.770;9.154;2023-02-01T05:51:14;16.63;;;2.30;;
2023;SDS011;1016;48.770;9.154;2023-02-01T05:53:40;16.00;;;2.30;;
2023;SDS011;1016;48.770;9.154;2023-02-01T05:56:05;16.30;;;2.17;;
2023;SDS011;1016;48.770;9.154;2023-02-01T05:58:31;16.67;;;2.47;;
2023;SDS011;1016;48.770;9.154;2023-02-01T06:00:59;17.17;;;2.70;;
2023;SDS011;1016;48.770;9.154;2023-02-01T06:03:25;17.73;;;2.60;;
2023;SDS011;1016;48.770;9.154;2023-02-01T06:05:51;16.20;;;2.47;;
2023;SDS011;1016;48.770;9.154;2023-02-01T06:08:17;16.60;;;2.40;;
2023;SDS011;1016;48.770;9.154;2023-02-01T06:10:42;16.43;;;2.43;;
2023;SDS011;1016;48.770;9.154;2023-02-01T06:13:08;16.20;;;2.60;;
2023;SDS011;1016;48.770;9.154;2023-02-01T06:15:34;17.33;;;2.70;;
2023;SDS011;1016;48.770;9.154;2023-02-01T06:18:00;16.97;;;2.37;;
2023;SDS011;1016;48.770;9.154;2023-02-01T06:20:25;17.30;;;2.43;;
2023;SDS011;1016;48.770;9.154;2023-02-01T06:22:51;16.53;;;2.40;;
2023;SDS011;1016;48.770;9.154;2023-02-01T06:25:17;15.50;;;2.30;;
2023;SDS011;1016;48.770;9.154;2023-02-01T06:27:43;19.83;;;2.67;;
2023;SDS011;1016;48.770;9.154;2023-02-01T06:30:10;19.53;;;3.00;;
2023;SDS011;1016;48.770;9.154;2023-02-01T06:32:38;22.80;;;6.50;;
2023;SDS011;1016;48.770;9.154;2023-02-01T06:35:05;25.23;;;3.10;;
2023;SDS011;1016;48.770;9.154;2023-02-01T06:37:32;15.80;;;2.40;;
2023;SDS011;1016;48.770;9.154;2023-02-01T06:39:59;17.40;;;2.53;;
2023;SDS011;1016;48.770;9.154;2023-02-01T06:42:24;16.50;;;2.53;;
2023;SDS011;1016;48.770;9.154;2023-02-01T06:44:50;16.53;;;2.30;;
2023;SDS011;1016;48.770;9.154;2023-02-01T06:47:16;16.60;;;2.47;;
2023;SDS011;1016;48.770;9.154;2023-02-01T06:49:41;17.13;;;2.80;;
2023;SDS011;1016;48.770;9.154;2023-02-01T06:52:07;15.80;;;2.30;;
2023;SDS011;1016;48.770;9.154;2023-02-01T06:54:33;16.90;;;2.60;;
2023;SDS011;1016;48.770;9.154;2023-02-01T06:56:59;18.37;;;2.40;;
2023;SDS011;1016;48.770;9.154;2023-02-01T06:59:24;18.53;;;2.80;;
2023;SDS011;1016;48.770;9.154;2023-02-01T07:01:50;16.70;;;2.60;;
2023;SDS011;1016;48.770;9.154;2023-02-01T07:04:16;17.20;;;2.30;;
2023;SDS011;1016;48.770;9.154;2023-02-01T07:06:41;18.90;;;2.80;;
2023;SDS011;1016;48.770;9.154;2023-02-01T07:09:07;17.70;;;2.40;;
2023;SDS011;1016;48.770;9.154;2023-02-01T07:11:33;16.90;;;2.43;;
2023;SDS011;1016;48.770;9.154;2023-02-01T07:13:59;17.23;;;2.73;;
2023;SDS011;1016;48.770;9.154;2023-02-01T07:16:25;17.73;;;2.90;;
2023;SDS011;1016;48.770;9.154;2023-02-01T07:18:51;17.83;;;3.20;;
2023;SDS011;1016;48.770;9.154;2023-02-01T07:21:17;19.93;;;2.87;;
2023;SDS011;1016;48.770;9.154;2023-02-01T07:23:44;18.70;;;2.90;;
2023;SDS011;1016;48.770;9.154;2023-02-01T07:26:10;19.57;;;2.63;;
2023;SDS011;1016;48.770;9.154;2023-02-01T07:28:41;20.07;;;3.20;;
2023;SDS011;1016;48.770;9.154;2023-02-01T07:31:08;19.43;;;2.70;;
2023;SDS011;1016;48.770;9.154;2023-02-01T07:33:35;16.97;;;2.80;;
2023;SDS011;1016;48.770;9.154;2023-02-01T07:36:03;16.70;;;2.90;;
2023;SDS011;1016;48.770;9.154;2023-02-01T07:38:30;20.50;;;2.80;;
2023;SDS011;1016;48.770;9.154;2023-02-01T07:40:59;17.80;;;2.53;;
2023;SDS011;1016;48.770;9.154;2023-02-01T07:43:29;21.80;;;3.20;;
2023;SDS011;1016;48.770;9.154;2023-02-01T07:45:56;16.83;;;2.60;;
2023;SDS011;1016;48.770;9.154;2023-02-01T07:48:22;18.20;;;2.93;;
2023;SDS011;1016;48.770;9.154;2023-02-01T07:50:56;18.80;;;2.60;;
2023;SDS011;1016;48.770;9.154;2023-02-01T07:53:23;17.60;;;3.30;;
2023;SDS011;1016;48.770;9.154;2023-02-01T07:55:49;17.13;;;2.73;;
2023;SDS011;1016;48.770;9.154;2023-02-01T07:58:14;19.97;;;2.50;;
2023;SDS011;1016;48.770;9.154;2023-02-01T08:00:40;19.40;;;3.00;;
2023;SDS011;1016;48.770;9.154;2023-02-01T08:03:24;18.00;;;2.70;;
2023;SDS011;1016;48.770;9.154;2023-02-01T08:05:53;17.40;;;2.43;;
2023;SDS011;1016;48.770;9.154;2023-02-01T08:08:20;17.80;;;2.43;;
2023;SDS011;1016;48.770;9.154;2023-02-01T08:10:46;20.17;;;2.90;;
2023;SDS011;1016;48.770;9.154;2023-02-01T08:13:11;16.87;;;2.63;;
2023;SDS011;1016;48.770;9.154;2023-02-01T08:15:37;17.80;;;2.87;;
2023;SDS011;1016;48.770;9.154;2023-02-01T08:18:02;20.23;;;2.90;;
2023;SDS011;1016;48.770;9.154;2023-02-01T08:20:28;18.70;;;2.90;;
2023;SDS011;1016;48.770;9.154;2023-02-01T08:22:54;17.93;;;2.57;;
2023;SDS011;1016;48.770;9.154;2023-02-01T08:25:20;16.90;;;2.53;;
2023;SDS011;1016;48.770;9.154;2023-02-01T08:27:46;20.23;;;2.93;;
2023;SDS011;1016;48.770;9.154;2023-02-01T08:30:11;18.40;;;2.80;;
2023;SDS011;1016;48.770;9.154;2023-02-01T08:32:38;19.70;;;2.90;;
2023;SDS011;1016;48.770;9.154;2023-02-01T08:35:04;19.70;;;2.73;;
2023;SDS011;1016;48.770;9.154;2023-02-01T08:37:30;18.07;;;2.87;;
2023;SDS011;1016;48.770;9.154;2023-02-01T08:39:55;21.77;;;2.80;;
2023;SDS011;1016;48.770;9.154;2023-02-01T08:42:21;18.80;;;2.80;;
2023;SDS011;1016;48.770;9.154;2023-02-01T08:45:06;23.43;;;2.70;;
2023;SDS011;1016;48.770;9.154;2023-02-01T08:47:32;20.43;;;3.37;;
2023;SDS011;1016;48.770;9.154;2023-02-01T08:49:58;19.80;;;3.13;;
2023;SDS011;1016;48.770;9.154;2023-02-01T08:52:24;20.80;;;3.03;;
2023;SDS011;1016;48.770;9.154;2023-02-01T08:54:50;17.90;;;2.80;;
2023;SDS011;1016;48.770;9.154;2023-02-01T08:57:16;19.20;;;2.77;;
2023;SDS011;1016;48.770;9.154;2023-02-01T08:59:42;19.60;;;2.50;;
2023;SDS011;1016;48.770;9.154;2023-02-01T09:02:11;21.70;;;3.20;;
2023;SDS011;1016;48.770;9.154;2023-02-01T09:04:38;20.17;;;2.90;;
2023;SDS011;1016;48.770;9.154;2023-02-01T09:07:03;22.10;;;3.23;;
2023;SDS011;1016;48.770;9.154;2023-02-01T09:09:29;19.47;;;3.00;;
2023;SDS011;1016;48.770;9.154;2023-02-01T09:11:55;21.33;;;3.07;;
2023;SDS011;1016;48.770;9.154;2023-02-01T09:14:20;19.77;;;2.73;;
2023;SDS011;1016;48.770;9.154;2023-02-01T09:16:45;19.60;;;3.00;;
2023;SDS011;1016;48.770;9.154;2023-02-01T09:19:11;22.67;;;3.27;;
2023;SDS011;1016;48.770;9.154;2023-02-01T09:21:36;22.23;;;3.47;;
2023;SDS011;1016;48.770;9.154;2023-02-01T09:24:02;20.90;;;2.80;;
2023;SDS011;1016;48.770;9.154;2023-02-01T09:26:29;21.57;;;3.50;;
2023;SDS011;1016;48.770;9.154;2023-02-01T09:28:54;21.77;;;3.07;;
2023;SDS011;1016;48.770;9.154;2023-02-01T09:31:20;20.80;;;2.90;;
2023;SDS011;1016;48.770;9.154;2023-02-01T09:33:45;21.47;;;3.80;;
2023;SDS011;1016;48.770;9.154;2023-02-01T09:36:11;20.13;;;3.50;;
2023;SDS011;1016;48.770;9.154;2023-02-01T09:38:36;22.73;;;3.30;;
2023;SDS011;1016;48.770;9.154;2023-02-01T09:41:06;19.30;;;3.37;;
2023;SDS011;1016;48.770;9.154;2023-02-01T09:43:47;19.33;;;2.63;;
2023;SDS011;1016;48.770;9.154;2023-02-01T09:46:27;20.27;;;3.20;;
2023;SDS011;1016;48.770;9.154;2023-02-01T09:48:57;23.23;;;3.53;;
2023;SDS011;1016;48.770;9.154;2023-02-01T09:51:30;22.67;;;3.07;;
2023;SDS011;1016;48.770;9.154;2023-02-01T09:54:04;21.77;;;2.73;;
2023;SDS011;1016;48.770;9.154;2023-02-01T09:56:46;21.87;;;3.37;;
2023;SDS011;1016;48.770;9.154;2023-02-01T09:59:43;22.00;;;3.17;;
2023;SDS011;1016;48.770;9.154;2023-02-01T10:02:20;20.90;;;3.20;;
2023;SDS011;1016;48.770;9.154;2023-02-01T10:04:49;23.87;;;3.50;;
2023;SDS011;1016;48.770;9.154;2023-02-01T10:23:33;23.57;;;3.47;;
2023;SDS011;1016;48.770;9.154;2023-02-01T10:26:23;25.73;;;3.23;;
2023;SDS011;1016;48.770;9.154;2023-02-01T10:28:52;22.60;;;3.27;;
2023;SDS011;1016;48.770;9.154;2023-02-01T10:31:24;25.40;;;3.00;;
2023;SDS011;1016;48.770;9.154;2023-02-01T10:33:56;20.20;;;2.70;;
2023;SDS011;1016;48.770;9.154;2023-02-01T10:36:34;19.87;;;2.80;;
2023;SDS011;1016;48.770;9.154;2023-02-01T10:39:02;21.03;;;2.80;;
2023;SDS011;1016;48.770;9.154;2023-02-01T10:41:31;21.07;;;3.10;;
2023;SDS011;1016;48.770;9.154;2023-02-01T10:43:58;21.73;;;2.53;;
2023;SDS011;1016;48.770;9.154;2023-02-01T10:46:29;23.07;;;3.10;;
2023;SDS011;1016;48.770;9.154;2023-02-01T10:48:56;24.77;;;3.00;;
2023;SDS011;1016;48.770;9.154;2023-02-01T10:54:17;21.13;;;3.00;;
2023;SDS011;1016;48.770;9.154;2023-02-01T10:56:48;22.10;;;2.70;;
2023;SDS011;1016;48.770;9.154;2023-02-01T10:59:18;21.20;;;2.77;;
2023;SDS011;1016;48.770;9.154;2023-02-01T11:01:47;22.17;;;2.67;;
2023;SDS011;1016;48.770;9.154;2023-02-01T11:04:18;20.40;;;2.50;;
2023;SDS011;1016;48.770;9.154;2023-02-01T11:06:46;21.90;;;2.87;;
2023;SDS011;1016;48.770;9.154;2023-02-01T11:09:31;23.57;;;2.90;;
2023;SDS011;1016;48.770;9.154;2023-02-01T11:11:59;21.60;;;3.03;;
2023;SDS011;1016;48.770;9.154;2023-02-01T11:16:53;21.90;;;3.00;;
2023;SDS011;1016;48.770;9.154;2023-02-01T11:19:22;22.87;;;2.80;;
2023;SDS011;1016;48.770;9.154;2023-02-01T11:21:51;25.37;;;3.40;;
2023;SDS011;1016;48.770;9.154;2023-02-01T11:24:23;21.57;;;2.83;;
2023;SDS011;1016;48.770;9.154;2023-02-01T11:26:59;22.70;;;2.83;;
2023;SDS011;1016;48.770;9.154;2023-02-01T11:29:28;22.43;;;2.73;;
2023;SDS011;1016;48.770;9.154;2023-02-01T11:32:07;26.70;;;3.37;;
2023;SDS011;1016;48.770;9.154;2023-02-01T11:34:42;23.33;;;3.00;;
2023;SDS011;1016;48.770;9.154;2023-02-01T11:37:16;22.60;;;2.70;;
2023;SDS011;1016;48.770;9.154;2023-02-01T11:39:53;22.23;;;2.60;;
2023;SDS011;1016;48.770;9.154;2023-02-01T11:42:23;21.03;;;2.73;;
2023;SDS011;1016;48.770;9.154;2023-02-01T11:44:50;22.67;;;3.57;;
2023;SDS011;1016;48.770;9.154;2023-02-01T11:47:39;22.20;;;2.67;;
2023;SDS011;1016;48.770;9.154;2023-02-01T11:50:12;25.90;;;2.80;;
2023;SDS011;1016;48.770;9.154;2023-02-01T11:52:59;18.73;;;2.13;;
2023;SDS011;1016;48.770;9.154;2023-02-01T12:01:27;23.40;;;2.60;;
2023;SDS011;1016;48.770;9.154;2023-02-01T12:04:18;21.53;;;2.83;;
2023;SDS011;1016;48.770;9.154;2023-02-01T12:06:51;25.40;;;3.10;;
2023;SDS011;1016;48.770;9.154;2023-02-01T12:12:25;22.30;;;2.60;;
2023;SDS011;1016;48.770;9.154;2023-02-01T12:14:59;20.13;;;2.57;;
2023;SDS011;1016;48.770;9.154;2023-02-01T12:17:57;22.80;;;2.90;;
2023;SDS011;1016;48.770;9.154;2023-02-01T12:20:55;25.23;;;2.73;;
2023;SDS011;1016;48.770;9.154;2023-02-01T12:23:51;23.03;;;2.77;;
2023;SDS011;1016;48.770;9.154;2023-02-01T12:40:49;21.80;;;2.63;;
2023;SDS011;1016;48.770;9.154;2023-02-01T12:46:23;21.53;;;2.70;;
2023;SDS011;1016;48.770;9.154;2023-02-01T12:49:00;26.33;;;3.50;;
2023;SDS011;1016;48.770;9.154;2023-02-01T12:51:36;22.43;;;2.40;;
2023;SDS011;1016;48.770;9.154;2023-02-01T12:54:09;27.13;;;2.60;;
2023;SDS011;1016;48.770;9.154;2023-02-01T12:59:27;22.50;;;2.80;;
2023;SDS011;1016;48.770;9.154;2023-02-01T13:04:33;21.83;;;2.60;;
2023;SDS011;1016;48.770;9.154;2023-02-01T13:07:19;27.60;;;2.87;;
2023;SDS011;1016;48.770;9.154;2023-02-01T13:10:16;28.40;;;3.63;;
2023;SDS011;1016;48.770;9.154;2023-02-01T13:13:27;24.93;;;3.23;;
2023;SDS011;1016;48.770;9.154;2023-02-01T13:16:23;21.53;;;2.90;;
2023;SDS011;1016;48.770;9.154;2023-02-01T13:18:52;21.00;;;2.43;;
2023;SDS011;1016;48.770;9.154;2023-02-01T13:21:26;24.13;;;2.80;;
2023;SDS011;1016;48.770;9.154;2023-02-01T13:23:56;29.83;;;3.67;;
2023;SDS011;1016;48.770;9.154;2023-02-01T13:26:22;21.50;;;2.47;;
2023;SDS011;1016;48.770;9.154;2023-02-01T13:28:56;21.50;;;2.90;;
2023;SDS011;1016;48.770;9.154;2023-02-01T13:31:49;24.10;;;2.57;;
2023;SDS011;1016;48.770;9.154;2023-02-01T13:34:32;23.87;;;2.50;;
2023;SDS011;1016;48.770;9.154;2023-02-01T13:37:28;22.63;;;3.00;;
2023;SDS011;1016;48.770;9.154;2023-02-01T13:42:46;21.80;;;2.83;;
2023;SDS011;1016;48.770;9.154;2023-02-01T13:45:17;21.00;;;2.80;;
2023;SDS011;1016;48.770;9.154;2023-02-01T13:47:46;25.37;;;2.73;;
2023;SDS011;1016;48.770;9.154;2023-02-01T13:50:36;27.80;;;3.07;;
2023;SDS011;1016;48.770;9.154;2023-02-01T13:55:41;23.33;;;2.67;;
2023;SDS011;1016;48.770;9.154;2023-02-01T14:01:31;24.50;;;3.07;;
2023;SDS011;1016;48.770;9.154;2023-02-01T14:03:46;23.57;;;2.20;;
2023;SDS011;1016;48.770;9.154;2023-02-01T14:09:09;21.03;;;2.67;;
2023;SDS011;1016;48.770;9.154;2023-02-01T14:11:51;20.33;;;2.60;;
2023;SDS011;1016;48.770;9.154;2023-02-01T14:14:37;23.80;;;2.97;;
2023;SDS011;1016;48.770;9.154;2023-02-01T14:19:36;21.60;;;2.57;;
2023;SDS011;1016;48.770;9.154;2023-02-01T14:24:52;22.70;;;2.67;;
2023;SDS011;1016;48.770;9.154;2023-02-01T14:27:21;22.60;;;2.47;;
2023;SDS011;1016;48.770;9.154;2023-02-01T14:29:53;20.43;;;2.87;;
2023;SDS011;1016;48.770;9.154;2023-02-01T14:32:25;24.63;;;3.27;;
2023;SDS011;1016;48.770;9.154;2023-02-01T14:34:57;27.30;;;3.00;;
2023;SDS011;1016;48.770;9.154;2023-02-01T14:37:29;24.47;;;3.00;;
2023;SDS011;1016;48.770;9.154;2023-02-01T14:40:04;23.33;;;3.00;;
2023;SDS011;1016;48.770;9.154;2023-02-01T14:42:44;24.20;;;3.03;;
2023;SDS011;1016;48.770;9.154;2023-02-01T14:47:43;23.37;;;2.93;;
2023;SDS011;1016;48.770;9.154;2023-02-01T14:53:04;22.47;;;3.23;;
2023;SDS011;1016;48.770;9.154;2023-02-01T14:56:08;21.53;;;2.60;;
2023;SDS011;1016;48.770;9.154;2023-02-01T14:58:35;24.57;;;3.27;;
2023;SDS011;1016;48.770;9.154;2023-02-01T15:06:36;20.40;;;2.80;;
2023;SDS011;1016;48.770;9.154;2023-02-01T15:09:12;20.60;;;2.80;;
2023;SDS011;1016;48.770;9.154;2023-02-01T15:15:08;20.87;;;3.10;;
2023;SDS011;1016;48.770;9.154;2023-02-01T15:17:42;21.77;;;2.70;;
2023;SDS011;1016;48.770;9.154;2023-02-01T15:20:22;23.90;;;2.87;;
2023;SDS011;1016;48.770;9.154;2023-02-01T15:22:53;25.23;;;3.20;;
2023;SDS011;1016;48.770;9.154;2023-02-01T15:25:27;24.40;;;3.00;;
2023;SDS011;1016;48.770;9.154;2023-02-01T15:27:54;24.93;;;3.23;;
2023;SDS011;1016;48.770;9.154;2023-02-01T15:30:28;24.20;;;2.83;;
2023;SDS011;1016;48.770;9.154;2023-02-01T15:33:06;21.03;;;2.80;;
2023;SDS011;1016;48.770;9.154;2023-02-01T15:35:42;22.07;;;2.20;;
2023;SDS011;1016;48.770;9.154;2023-02-01T15:40:57;24.27;;;2.70;;
2023;SDS011;1016;48.770;9.154;2023-02-01T15:43:29;22.93;;;2.70;;
2023;SDS011;1016;48.770;9.154;2023-02-01T15:46:17;22.97;;;3.03;;
2023;SDS011;1016;48.770;9.154;2023-02-01T15:48:48;20.90;;;2.77;;
2023;SDS011;1016;48.770;9.154;2023-02-01T15:51:18;21.40;;;3.10;;
2023;SDS011;1016;48.770;9.154;2023-02-01T15:53:54;21.07;;;2.63;;
2023;SDS011;1016;48.770;9.154;2023-02-01T15:56:27;22.20;;;2.70;;
2023;SDS011;1016;48.770;9.154;2023-02-01T15:58:59;20.77;;;2.57;;
2023;SDS011;1016;48.770;9.154;2023-02-01T16:01:26;25.20;;;3.13;;
2023;SDS011;1016;48.770;9.154;2023-02-01T16:04:03;24.53;;;2.93;;
2023;SDS011;1016;48.770;9.154;2023-02-01T16:06:30;21.20;;;2.37;;
2023;SDS011;1016;48.770;9.154;2023-02-01T16:09:10;22.10;;;3.00;;
2023;SDS011;1016;48.770;9.154;2023-02-01T16:11:57;21.20;;;2.60;;
2023;SDS011;1016;48.770;9.154;2023-02-01T16:14:26;23.90;;;2.90;;
2023;SDS011;1016;48.770;9.154;2023-02-01T16:16:53;24.73;;;3.30;;
2023;SDS011;1016;48.770;9.154;2023-02-01T16:19:20;22.73;;;2.43;;
2023;SDS011;1016;48.770;9.154;2023-02-01T16:21:48;21.50;;;2.33;;
2023;SDS011;1016;48.770;9.154;2023-02-01T16:24:13;21.80;;;2.67;;
2023;SDS011;1016;48.770;9.154;2023-02-01T16:26:39;23.43;;;2.57;;
2023;SDS011;1016;48.770;9.154;2023-02-01T16:29:04;20.53;;;2.77;;
2023;SDS011;1016;48.770;9.154;2023-02-01T16:31:36;21.43;;;2.57;;
2023;SDS011;1016;48.770;9.154;2023-02-01T16:34:04;21.50;;;3.07;;
2023;SDS011;1016;48.770;9.154;2023-02-01T16:36:31;22.83;;;3.00;;
2023;SDS011;1016;48.770;9.154;2023-02-01T16:38:57;20.83;;;2.50;;
2023;SDS011;1016;48.770;9.154;2023-02-01T16:41:23;21.20;;;2.30;;
2023;SDS011;1016;48.770;9.154;2023-02-01T16:43:50;23.90;;;2.90;;
2023;SDS011;1016;48.770;9.154;2023-02-01T16:46:18;19.87;;;2.43;;
2023;SDS011;1016;48.770;9.154;2023-02-01T16:48:50;20.83;;;2.53;;
2023;SDS011;1016;48.770;9.154;2023-02-01T16:51:17;25.13;;;3.07;;
2023;SDS011;1016;48.770;9.154;2023-02-01T16:53:44;22.53;;;2.40;;
2023;SDS011;1016;48.770;9.154;2023-02-01T16:56:13;23.47;;;2.93;;
2023;SDS011;1016;48.770;9.154;2023-02-01T16:58:41;22.37;;;2.73;;
2023;SDS011;1016;48.770;9.154;2023-02-01T17:01:08;20.20;;;2.33;;
2023;SDS011;1016;48.770;9.154;2023-02-01T17:03:35;21.23;;;2.47;;
2023;SDS011;1016;48.770;9.154;2023-02-01T17:06:00;24.23;;;2.70;;
2023;SDS011;1016;48.770;9.154;2023-02-01T17:08:28;22.10;;;2.80;;
2023;SDS011;1016;48.770;9.154;2023-02-01T17:10:55;18.87;;;2.47;;
2023;SDS011;1016;48.770;9.154;2023-02-01T17:13:21;26.53;;;2.57;;
2023;SDS011;1016;48.770;9.154;2023-02-01T17:15:52;22.20;;;2.60;;
2023;SDS011;1016;48.770;9.154;2023-02-01T17:18:21;21.03;;;2.47;;